Time;durP1;ratioP1;P1;durP2;ratioP2;P2;SDS_P1;SDS_P2;PMS_P1;PMS_P2;Temp;Humidity;BMP_temperature;BMP_pressure;BME280_temperature;BME280_humidity;BME280_pressure;Samples;Min_cycle;Max_cycle;Signal;HPM_P1;HPM_P2
2022/04/13 00:01:58;;;;;;;;;0.00;0.00;;;;;17.36;53.80;100765.47;5159017;27;45344;-67
2022/04/13 00:04:24;;;;;;;;;5.00;2.00;;;;;17.37;53.48;100761.84;5162280;27;47571;-67
2022/04/13 00:06:49;;;;;;;;;1.67;1.67;;;;;17.41;53.81;100768.19;5162910;27;45143;-67
2022/04/13 00:09:14;;;;;;;;;3.67;3.67;;;;;17.44;53.52;100770.84;5168429;27;45269;-67
2022/04/13 00:11:40;;;;;;;;;2.00;2.00;;;;;17.46;53.29;100769.06;5172390;27;45035;-67
2022/04/13 00:14:05;;;;;;;;;4.67;2.00;;;;;17.50;53.81;100778.94;5174395;27;45029;-67
2022/04/13 00:16:31;;;;;;;;;2.00;2.00;;;;;17.47;53.65;100781.66;5175173;27;45220;-68
2022/04/13 00:18:56;;;;;;;;;1.33;1.33;;;;;17.51;53.99;100780.78;5175140;27;45091;-67
2022/04/13 00:21:21;;;;;;;;;1.00;1.00;;;;;17.09;53.97;100709.69;5170105;27;45415;-67
2022/04/13 00:23:47;;;;;;;;;2.33;0.67;;;;;17.31;54.14;100768.19;5170886;27;45435;-67
2022/04/13 00:26:12;;;;;;;;;2.00;2.00;;;;;17.37;53.75;100778.06;5173420;27;45015;-67
2022/04/13 00:28:38;;;;;;;;;4.67;2.00;;;;;17.35;54.23;100771.78;5174316;27;45006;-67
2022/04/13 00:31:03;;;;;;;;;1.67;1.00;;;;;17.46;53.65;100786.16;5171901;27;46353;-67
2022/04/13 00:33:28;;;;;;;;;1.33;1.33;;;;;17.49;53.59;100796.09;5172868;27;45487;-67
2022/04/13 00:35:55;;;;;;;;;1.00;1.00;;;;;17.42;53.87;100780.78;5165665;27;45403;-68
2022/04/13 00:38:22;;;;;;;;;2.00;1.00;;;;;17.11;53.54;100721.41;5167564;27;45299;-69
2022/04/13 00:40:48;;;;;;;;;1.00;1.00;;;;;17.56;53.51;100797.88;5169612;27;45479;-67
2022/04/13 00:43:13;;;;;;;;;3.00;0.67;;;;;17.53;53.86;100800.56;5169762;27;45255;-68
2022/04/13 00:45:39;;;;;;;;;1.00;1.00;;;;;17.53;54.18;100803.28;5173504;27;45292;-67
2022/04/13 00:48:06;;;;;;;;;1.00;1.00;;;;;17.10;54.37;100739.38;5173216;27;44985;-68
2022/04/13 00:50:32;;;;;;;;;2.00;2.00;;;;;17.42;54.22;100786.16;5172410;27;45157;-67
2022/04/13 00:52:59;;;;;;;;;2.00;1.00;;;;;17.39;54.23;100760.09;5172864;27;45085;-67
2022/04/13 00:55:26;;;;;;;;;2.00;2.00;;;;;17.53;53.73;100786.16;5160173;27;45234;-67
2022/04/13 00:57:53;;;;;;;;;1.00;1.00;;;;;17.55;53.53;100777.13;5161633;27;45611;-66
2022/04/13 01:00:19;;;;;;;;;3.00;2.00;;;;;17.49;53.60;100769.97;5171264;27;45194;-67
2022/04/13 01:02:45;;;;;;;;;5.00;3.00;;;;;17.55;53.84;100769.03;5172656;27;44990;-67
2022/04/13 01:05:12;;;;;;;;;2.00;2.00;;;;;17.57;53.86;100779.84;5173301;27;44942;-67
2022/04/13 01:07:39;;;;;;;;;1.00;1.00;;;;;17.53;54.13;100772.66;5170425;27;45448;-69
2022/04/13 01:10:06;;;;;;;;;0.00;0.00;;;;;17.51;54.28;100780.78;5159845;27;45444;-68
2022/04/13 01:12:35;;;;;;;;;1.00;1.00;;;;;17.45;54.30;100787.06;5163696;27;45319;-68
2022/04/13 01:15:02;;;;;;;;;0.67;0.67;;;;;17.44;54.38;100787.97;5164920;27;45600;-68
2022/04/13 01:17:28;;;;;;;;;3.00;2.00;;;;;17.43;54.67;100785.28;5169812;27;44967;-69
2022/04/13 01:19:54;;;;;;;;;0.67;0.67;;;;;17.41;54.74;100784.38;5172798;27;45510;-67
2022/04/13 01:22:23;;;;;;;;;2.67;1.67;;;;;17.39;55.03;100788.88;5170932;27;45014;-68
2022/04/13 01:24:49;;;;;;;;;2.67;1.00;;;;;17.39;54.68;100794.28;5156735;27;45557;-67
2022/04/13 01:27:15;;;;;;;;;3.00;2.00;;;;;17.35;54.65;100785.28;5157281;27;45502;-67
2022/04/13 01:29:42;;;;;;;;;1.67;1.67;;;;;17.34;54.99;100788.91;5161034;27;45346;-68
2022/04/13 01:32:10;;;;;;;;;3.33;3.00;;;;;17.30;55.38;100795.19;5166508;27;45228;-68
2022/04/13 01:34:35;;;;;;;;;1.00;1.00;;;;;17.18;55.89;100776.31;5172278;27;45071;-69
2022/04/13 01:37:01;;;;;;;;;3.67;1.00;;;;;17.24;56.17;100798.81;5165898;27;45407;-68
2022/04/13 01:39:27;;;;;;;;;3.00;1.67;;;;;17.24;55.77;100801.50;5163344;27;45615;-67
2022/04/13 01:41:53;;;;;;;;;2.67;1.67;;;;;17.15;56.27;100784.41;5166729;27;45284;-67
2022/04/13 01:44:18;;;;;;;;;2.00;2.00;;;;;17.23;55.62;100799.69;5172938;27;45219;-67
2022/04/13 01:46:43;;;;;;;;;2.67;2.00;;;;;17.30;55.39;100806.88;5160455;27;45414;-67
2022/04/13 01:49:09;;;;;;;;;2.00;2.00;;;;;17.31;55.67;100807.81;5170458;27;49164;-67
2022/04/13 01:51:34;;;;;;;;;3.00;2.00;;;;;17.29;55.57;100809.56;5169412;27;44888;-66
2022/04/13 01:53:59;;;;;;;;;2.33;1.00;;;;;17.29;55.75;100812.28;5172472;27;44941;-68
2022/04/13 01:56:25;;;;;;;;;5.00;4.00;;;;;17.30;55.34;100814.09;5171521;27;45191;-68
2022/04/13 01:58:50;;;;;;;;;3.00;2.00;;;;;17.29;55.32;100807.81;5166842;27;46010;-68
2022/04/13 02:01:16;;;;;;;;;2.33;1.00;;;;;17.30;55.12;100814.09;5169662;27;45277;-68
2022/04/13 02:03:41;;;;;;;;;6.33;2.67;;;;;17.28;55.65;100814.09;5172500;27;45152;-68
2022/04/13 02:06:06;;;;;;;;;3.33;1.67;;;;;17.23;55.58;100821.28;5172970;27;45171;-68
2022/04/13 02:08:33;;;;;;;;;2.67;1.33;;;;;17.23;55.58;100823.09;5163138;27;45436;-67
2022/04/13 02:10:58;;;;;;;;;2.00;2.00;;;;;17.24;55.77;100828.50;5170842;27;44984;-66
2022/04/13 02:13:24;;;;;;;;;2.00;2.00;;;;;17.25;55.50;100819.47;5170235;27;45092;-66
2022/04/13 02:15:49;;;;;;;;;1.67;1.67;;;;;17.28;55.46;100824.88;5170794;27;45032;-66
2022/04/13 02:18:15;;;;;;;;;4.33;2.67;;;;;17.30;55.86;100824.88;5170263;27;45635;-66
2022/04/13 02:20:41;;;;;;;;;2.67;1.00;;;;;17.25;55.37;100824.88;5174835;27;44993;-66
2022/04/13 02:23:06;;;;;;;;;1.00;1.00;;;;;17.16;55.75;100810.47;5160180;27;45814;-67
2022/04/13 02:25:33;;;;;;;;;3.33;2.00;;;;;17.27;55.73;100838.38;5160408;27;45296;-66
2022/04/13 02:27:59;;;;;;;;;1.00;0.33;;;;;17.15;55.80;100814.09;5159806;27;45479;-67
2022/04/13 02:30:24;;;;;;;;;1.67;1.67;;;;;17.22;55.81;100837.50;5166443;27;45343;-67
2022/04/13 02:32:49;;;;;;;;;2.00;2.00;;;;;17.15;56.33;100827.59;5173891;27;45373;-67
2022/04/13 02:35:15;;;;;;;;;2.67;2.00;;;;;17.15;56.36;100828.50;5178631;27;44964;-68
2022/04/13 02:37:42;;;;;;;;;4.33;1.67;;;;;17.16;56.03;100830.31;5178199;27;45187;-68
2022/04/13 02:40:08;;;;;;;;;3.00;2.67;;;;;17.18;56.51;100838.41;5178086;27;45071;-68
2022/04/13 02:42:34;;;;;;;;;3.33;2.33;;;;;17.16;57.15;100834.78;5177829;27;44994;-67
2022/04/13 02:45:00;;;;;;;;;3.67;2.67;;;;;17.11;57.08;100838.38;5178315;27;45216;-67
2022/04/13 02:47:26;;;;;;;;;2.00;2.00;;;;;17.09;57.32;100839.28;5178806;27;45490;-67
2022/04/13 02:49:52;;;;;;;;;3.00;3.00;;;;;16.97;58.11;100826.66;5177706;27;45294;-67
2022/04/13 02:52:17;;;;;;;;;4.00;2.67;;;;;16.89;58.17;100813.16;5177711;27;45051;-67
2022/04/13 02:54:42;;;;;;;;;2.00;2.00;;;;;17.03;58.24;100828.50;5173569;27;45481;-66
2022/04/13 02:57:08;;;;;;;;;5.00;3.33;;;;;17.00;58.79;100833.88;5177478;27;45610;-67
2022/04/13 02:59:33;;;;;;;;;4.00;4.00;;;;;16.99;58.87;100827.56;5169764;27;45336;-68
2022/04/13 03:01:58;;;;;;;;;2.33;2.00;;;;;16.93;59.49;100833.88;5178007;27;44966;-68
2022/04/13 03:04:24;;;;;;;;;2.33;2.33;;;;;16.84;59.78;100830.22;5174333;27;45284;-67
2022/04/13 03:06:49;;;;;;;;;4.33;2.00;;;;;16.64;59.69;100811.28;5159115;27;45473;-68
2022/04/13 03:09:15;;;;;;;;;4.00;2.33;;;;;16.53;60.00;100784.28;5162634;27;45398;-68
2022/04/13 03:11:40;;;;;;;;;2.50;2.50;;;;;16.77;60.05;100826.59;5164336;27;45553;-68
2022/04/13 03:14:06;;;;;;;;;1.33;1.33;;;;;16.69;60.14;100826.56;5161313;27;45413;-68
2022/04/13 03:16:31;;;;;;;;;4.67;3.00;;;;;16.80;60.75;100858.09;5160506;27;48184;-68
2022/04/13 03:18:57;;;;;;;;;4.00;4.00;;;;;16.77;60.84;100857.16;5160381;27;46728;-67
2022/04/13 03:21:22;;;;;;;;;3.00;3.00;;;;;16.76;61.55;100871.59;5169889;27;45259;-68
2022/04/13 03:23:47;;;;;;;;;2.33;2.33;;;;;16.68;61.73;100854.47;5168565;27;45226;-68
2022/04/13 03:26:12;;;;;;;;;3.67;3.67;;;;;16.70;62.19;100858.06;5167224;27;47609;-67
2022/04/13 03:28:38;;;;;;;;;5.00;3.00;;;;;16.59;62.00;100838.25;5165696;27;45305;-68
2022/04/13 03:31:03;;;;;;;;;3.33;3.33;;;;;16.60;62.54;100850.84;5171037;27;45218;-68
2022/04/13 03:33:29;;;;;;;;;2.67;2.67;;;;;16.63;62.81;100868.81;5167241;27;45370;-67
2022/04/13 03:35:54;;;;;;;;;5.00;2.33;;;;;16.64;62.91;100887.72;5163641;27;46040;-68
2022/04/13 03:38:19;;;;;;;;;6.33;2.67;;;;;16.58;62.83;100879.59;5158785;27;45354;-67
2022/04/13 03:40:44;;;;;;;;;2.67;2.67;;;;;16.55;64.02;100888.59;5159008;27;44778;-67
2022/04/13 03:43:10;;;;;;;;;7.25;4.00;;;;;16.52;64.60;100898.47;5163833;27;45357;-68
2022/04/13 03:45:36;;;;;;;;;4.67;3.67;;;;;16.50;64.74;100902.94;5158665;27;45526;-67
2022/04/13 03:48:01;;;;;;;;;3.00;3.00;;;;;16.47;64.80;100900.25;5158398;27;45471;-67
2022/04/13 03:50:26;;;;;;;;;3.33;3.33;;;;;16.49;64.84;100901.16;5135443;27;45456;-68
2022/04/13 03:52:52;;;;;;;;;3.33;2.33;;;;;16.22;65.42;100851.59;5137848;27;45368;-67
2022/04/13 03:55:22;;;;;;;;;3.00;3.00;;;;;16.08;64.90;100826.34;5139186;27;45458;-67
2022/04/13 03:57:48;;;;;;;;;5.50;3.00;;;;;16.47;65.28;100897.56;5138218;27;45406;-67
2022/04/13 04:00:13;;;;;;;;;5.00;3.50;;;;;16.47;65.69;100898.44;5137544;27;45337;-67
2022/04/13 04:02:39;;;;;;;;;5.00;4.00;;;;;16.03;65.56;100826.31;5137843;27;45603;-69
2022/04/13 04:05:05;;;;;;;;;9.00;4.25;;;;;16.33;65.91;100884.91;5137810;27;45307;-67
2022/04/13 04:07:30;;;;;;;;;7.75;6.00;;;;;16.43;65.98;100902.00;5137251;27;45450;-68
2022/04/13 04:09:56;;;;;;;;;4.00;4.00;;;;;16.42;65.75;100902.03;5161941;27;45384;-67
2022/04/13 04:12:21;;;;;;;;;2.67;1.67;;;;;16.37;66.15;100902.88;5170895;27;45282;-67
2022/04/13 04:14:46;;;;;;;;;3.67;3.33;;;;;16.31;65.93;100902.84;5171994;27;47002;-68
2022/04/13 04:17:12;;;;;;;;;4.67;4.33;;;;;16.32;66.54;100909.16;5163322;27;45426;-69
2022/04/13 04:19:38;;;;;;;;;5.50;5.00;;;;;16.32;66.66;100910.06;5166711;27;45339;-67
2022/04/13 04:22:03;;;;;;;;;9.67;4.67;;;;;16.28;66.51;100915.41;5165107;27;45394;-67
2022/04/13 04:24:29;;;;;;;;;8.75;7.00;;;;;16.19;67.36;100897.41;5168572;27;45715;-67
2022/04/13 04:26:54;;;;;;;;;6.00;4.50;;;;;16.28;66.92;100916.31;5167719;27;45378;-67
2022/04/13 04:29:20;;;;;;;;;8.67;3.67;;;;;16.29;67.66;100917.22;5159934;27;45421;-67
2022/04/13 04:31:51;;;;;;;;;4.00;4.00;;;;;16.20;66.93;100910.91;5158571;27;45323;-68
2022/04/13 04:34:17;;;;;;;;;6.67;5.00;;;;;16.25;67.63;100926.19;5139035;27;46494;-68
2022/04/13 04:36:43;;;;;;;;;6.25;4.25;;;;;16.17;67.91;100923.47;5163280;27;45358;-68
2022/04/13 04:39:08;;;;;;;;;8.25;5.25;;;;;16.13;68.34;100925.22;5165020;27;45459;-68
2022/04/13 04:41:34;;;;;;;;;8.50;7.00;;;;;16.14;68.21;100931.53;5162224;27;44728;-68
2022/04/13 04:44:00;;;;;;;;;7.25;5.00;;;;;16.21;68.06;100944.13;5157742;27;46135;-67
2022/04/13 04:46:25;;;;;;;;;6.50;6.50;;;;;16.17;68.34;100934.25;5157045;27;45534;-69
2022/04/13 04:48:50;;;;;;;;;9.25;4.50;;;;;16.02;67.77;100914.38;5157938;27;45292;-68
2022/04/13 04:51:16;;;;;;;;;4.00;4.00;;;;;16.19;67.94;100935.16;5158282;27;45391;-69
2022/04/13 04:53:41;;;;;;;;;3.50;3.50;;;;;16.20;67.65;100937.84;5160504;27;46197;-68
2022/04/13 04:56:07;;;;;;;;;3.67;3.67;;;;;16.20;67.66;100926.13;5157377;27;45448;-69
2022/04/13 04:58:33;;;;;;;;;5.00;5.00;;;;;16.25;67.70;100936.97;5156984;27;45244;-68
2022/04/13 05:00:58;;;;;;;;;9.33;6.00;;;;;16.28;67.43;100934.28;5157249;27;45377;-68
2022/04/13 05:03:23;;;;;;;;;4.67;4.00;;;;;16.27;66.95;100933.41;5156914;27;45457;-69
2022/04/13 05:05:49;;;;;;;;;8.67;4.33;;;;;16.19;66.75;100935.16;5157660;27;45632;-68
2022/04/13 05:08:14;;;;;;;;;6.75;3.75;;;;;16.20;67.02;100939.63;5157603;27;45417;-68
2022/04/13 05:10:42;;;;;;;;;6.75;5.00;;;;;16.22;66.82;100943.25;5174204;27;45206;-68
2022/04/13 05:13:09;;;;;;;;;4.33;2.67;;;;;16.27;66.60;100946.88;5173775;27;45194;-67
2022/04/13 05:15:35;;;;;;;;;4.33;4.33;;;;;16.25;66.40;100936.97;5172900;27;45123;-67
2022/04/13 05:18:00;;;;;;;;;8.00;4.50;;;;;16.28;66.73;100948.66;5171495;27;46057;-69
2022/04/13 05:20:25;;;;;;;;;4.75;3.75;;;;;16.32;66.78;100955.88;5173042;27;45093;-69
2022/04/13 05:22:51;;;;;;;;;8.00;7.00;;;;;16.34;66.39;100954.09;5172742;27;45645;-68
2022/04/13 05:25:17;;;;;;;;;8.50;6.50;;;;;16.32;66.01;100944.22;5171872;27;45061;-67
2022/04/13 05:27:44;;;;;;;;;7.50;4.00;;;;;16.34;66.10;100956.78;5154041;27;45001;-69
2022/04/13 05:30:10;;;;;;;;;10.50;6.50;;;;;16.12;65.92;100918.03;5173202;27;45189;-69
2022/04/13 05:32:59;;;;;;;;;7.25;6.00;;;;;16.38;66.49;100953.25;5172227;27;46409;-69
2022/04/13 05:35:27;;;;;;;;;9.50;7.75;;;;;16.32;65.79;100942.41;5171099;27;45393;-67
2022/04/13 05:37:53;;;;;;;;;7.00;7.00;;;;;16.28;66.37;100940.56;5172542;27;45143;-69
2022/04/13 05:40:19;;;;;;;;;12.50;11.25;;;;;16.27;66.09;100937.88;5172428;27;45144;-67
2022/04/13 05:42:45;;;;;;;;;32.50;25.25;;;;;15.88;66.69;100874.75;5172647;27;45028;-69
2022/04/13 05:45:11;;;;;;;;;15.25;10.00;;;;;16.26;66.86;100938.78;5172132;27;45141;-67
2022/04/13 05:47:38;;;;;;;;;7.33;7.33;;;;;16.34;67.30;100951.41;5173965;27;44996;-68
2022/04/13 05:50:05;;;;;;;;;9.50;9.00;;;;;16.27;66.17;100952.28;5173996;27;45064;-67
2022/04/13 05:52:30;;;;;;;;;7.75;4.50;;;;;16.13;66.15;100935.09;5170072;27;45711;-70
2022/04/13 05:54:56;;;;;;;;;8.25;8.00;;;;;16.27;66.59;100973.84;5169915;27;45394;-70
2022/04/13 05:57:21;;;;;;;;;13.00;13.00;;;;;16.24;66.46;100959.44;5172229;27;45043;-70
2022/04/13 05:59:46;;;;;;;;;9.50;9.00;;;;;16.31;66.43;100972.06;5175639;27;45276;-71
2022/04/13 06:02:12;;;;;;;;;10.75;9.50;;;;;16.29;66.58;100963.97;5174766;27;46070;-70
2022/04/13 06:04:37;;;;;;;;;11.50;10.00;;;;;16.29;66.72;100979.25;5175401;27;45493;-70
2022/04/13 06:07:03;;;;;;;;;11.00;10.50;;;;;16.30;66.47;100978.31;5175396;27;45096;-70
2022/04/13 06:09:28;;;;;;;;;16.25;13.00;;;;;16.13;67.36;100960.25;5173783;27;45420;-69
2022/04/13 06:11:53;;;;;;;;;13.50;10.75;;;;;16.19;67.23;100964.78;5170988;27;47350;-70
2022/04/13 06:14:19;;;;;;;;;13.00;7.00;;;;;16.21;66.69;100976.47;5164876;27;45071;-70
2022/04/13 06:16:45;;;;;;;;;9.75;9.25;;;;;16.28;67.72;100996.28;5155353;27;45376;-69
2022/04/13 06:19:10;;;;;;;;;20.00;18.25;;;;;16.27;67.67;101005.25;5152469;27;45171;-70
2022/04/13 06:21:36;;;;;;;;;11.50;10.00;;;;;16.25;67.54;101005.28;5175868;27;45121;-70
2022/04/13 06:24:02;;;;;;;;;13.75;12.25;;;;;16.29;67.37;101008.91;5175531;27;45208;-70
2022/04/13 06:26:27;;;;;;;;;12.75;9.00;;;;;16.21;67.40;101001.63;5177749;27;45086;-70
2022/04/13 06:28:52;;;;;;;;;18.00;16.75;;;;;16.30;67.40;100997.19;5177730;27;45047;-69
2022/04/13 06:31:21;;;;;;;;;14.75;13.75;;;;;16.38;67.45;101012.56;5158894;27;46310;-68
2022/04/13 06:33:48;;;;;;;;;10.50;10.00;;;;;16.39;67.21;101018.84;5154234;27;45136;-70
2022/04/13 06:36:14;;;;;;;;;16.00;11.25;;;;;16.13;67.66;100984.50;5173444;27;44987;-70
2022/04/13 06:38:40;;;;;;;;;13.75;10.00;;;;;16.36;67.37;101029.59;5157206;27;45336;-70
2022/04/13 06:41:12;;;;;;;;;11.50;11.50;;;;;16.34;67.38;101029.59;5174825;27;46019;-70
2022/04/13 06:43:38;;;;;;;;;12.50;9.75;;;;;16.28;67.79;101032.25;5157367;27;45270;-70
2022/04/13 06:46:03;;;;;;;;;13.25;13.00;;;;;16.26;68.15;101031.34;5168137;27;45339;-70
2022/04/13 06:48:29;;;;;;;;;10.25;8.50;;;;;16.32;68.40;101034.09;5159596;27;46223;-70
2022/04/13 06:50:54;;;;;;;;;10.50;10.00;;;;;16.30;68.28;101040.34;5159174;27;46166;-70
2022/04/13 06:53:20;;;;;;;;;13.50;9.75;;;;;16.36;68.08;101059.28;5164455;27;45327;-70
2022/04/13 06:55:47;;;;;;;;;11.00;10.25;;;;;16.36;67.97;101053.88;5161367;27;45423;-70
2022/04/13 06:58:13;;;;;;;;;21.25;18.50;;;;;16.33;68.60;101045.75;5158905;27;45537;-70
2022/04/13 07:00:39;;;;;;;;;11.50;11.50;;;;;16.43;67.67;101073.69;5158706;27;45369;-69
2022/04/13 07:03:05;;;;;;;;;12.50;10.00;;;;;16.32;67.35;101052.06;5158856;27;45644;-69
2022/04/13 07:05:30;;;;;;;;;15.50;14.00;;;;;16.51;67.92;101088.16;5159035;27;45479;-69
2022/04/13 07:07:56;;;;;;;;;9.00;9.00;;;;;16.44;68.28;101087.19;5158785;27;45268;-70
2022/04/13 07:10:21;;;;;;;;;9.75;8.25;;;;;16.45;67.32;101098.88;5158334;27;45972;-69
2022/04/13 07:12:47;;;;;;;;;11.00;10.50;;;;;16.02;67.76;101030.25;5158534;27;45420;-70
2022/04/13 07:15:16;;;;;;;;;9.75;8.75;;;;;16.41;68.26;101106.06;5158799;27;45590;-69
2022/04/13 07:17:42;;;;;;;;;10.50;9.00;;;;;16.38;68.39;101111.41;5139852;27;45403;-70
2022/04/13 07:20:08;;;;;;;;;6.75;4.75;;;;;16.32;68.26;101125.75;5158593;27;45495;-70
2022/04/13 07:22:42;;;;;;;;;11.75;10.00;;;;;16.36;67.98;101119.50;5158420;27;45485;-70
2022/04/13 07:25:07;;;;;;;;;14.50;8.50;;;;;16.24;68.18;101116.69;5158260;27;45512;-70
2022/04/13 07:27:33;;;;;;;;;16.00;14.00;;;;;16.30;68.69;101113.13;5139374;27;45400;-70
2022/04/13 07:29:58;;;;;;;;;12.50;9.50;;;;;16.35;68.52;101114.06;5157780;27;50557;-68
2022/04/13 07:32:23;;;;;;;;;11.50;9.25;;;;;16.30;68.71;101118.53;5157958;27;49597;-70
2022/04/13 07:34:49;;;;;;;;;11.50;9.75;;;;;16.36;68.96;101115.91;5138867;27;45501;-70
2022/04/13 07:37:14;;;;;;;;;9.00;9.00;;;;;16.33;68.54;101113.16;5158457;27;45260;-70
2022/04/13 07:39:39;;;;;;;;;9.50;9.50;;;;;16.43;68.59;101136.63;5158165;27;45681;-70
2022/04/13 07:42:05;;;;;;;;;12.50;9.50;;;;;16.42;68.98;101132.13;5158018;27;45250;-70
2022/04/13 07:44:30;;;;;;;;;11.00;10.00;;;;;16.42;69.17;101137.53;5157731;27;45187;-70
2022/04/13 07:46:56;;;;;;;;;14.25;11.00;;;;;16.27;69.13;101107.72;5158259;27;45448;-69
2022/04/13 07:49:21;;;;;;;;;35.00;26.75;;;;;16.43;69.71;101133.03;5157759;27;45506;-70
2022/04/13 07:51:47;;;;;;;;;14.25;13.00;;;;;16.38;69.48;101131.22;5158088;27;45472;-70
2022/04/13 07:54:12;;;;;;;;;15.25;13.75;;;;;16.12;69.86;101090.53;5158092;27;45562;-70
2022/04/13 07:56:37;;;;;;;;;13.75;11.25;;;;;16.36;69.91;101142.88;5157906;27;45523;-68
2022/04/13 07:59:03;;;;;;;;;11.00;10.50;;;;;16.39;69.57;101138.41;5157843;27;45897;-70
2022/04/13 08:01:29;;;;;;;;;12.25;12.00;;;;;16.48;69.76;101139.38;5157937;27;45742;-69
2022/04/13 08:03:54;;;;;;;;;11.00;9.25;;;;;16.56;69.21;101134.94;5157546;27;45359;-70
2022/04/13 08:06:19;;;;;;;;;20.75;17.00;;;;;16.64;68.75;101140.41;5157859;27;45647;-70
2022/04/13 08:08:45;;;;;;;;;11.75;11.75;;;;;16.49;68.77;101111.50;5157729;27;46806;-69
2022/04/13 08:11:10;;;;;;;;;12.75;9.75;;;;;16.56;68.67;101130.47;5157715;27;45374;-69
2022/04/13 08:13:35;;;;;;;;;11.00;9.75;;;;;16.65;68.33;101145.81;5157728;27;45419;-69
2022/04/13 08:16:01;;;;;;;;;11.00;9.50;;;;;16.59;68.78;101126.88;5158035;27;45360;-68
2022/04/13 08:18:26;;;;;;;;;12.25;11.50;;;;;16.50;68.66;101125.00;5157151;27;46271;-70
2022/04/13 08:20:51;;;;;;;;;10.25;9.25;;;;;16.56;67.92;101134.94;5156438;27;45358;-70
2022/04/13 08:23:17;;;;;;;;;12.25;9.25;;;;;16.58;67.95;101144.88;5157661;27;45311;-69
2022/04/13 08:25:44;;;;;;;;;15.00;12.00;;;;;16.50;67.91;101141.19;5157455;27;45614;-68
2022/04/13 08:28:09;;;;;;;;;12.00;10.50;;;;;16.42;68.03;101123.16;5156983;27;46153;-68
2022/04/13 08:30:35;;;;;;;;;16.00;12.00;;;;;16.67;67.76;101156.63;5157339;27;45421;-70
2022/04/13 08:33:00;;;;;;;;;9.75;9.75;;;;;16.66;67.28;101147.59;5157066;27;45465;-68
2022/04/13 08:35:26;;;;;;;;;11.75;9.75;;;;;16.54;67.18;101123.25;5157026;27;45366;-70
2022/04/13 08:37:51;;;;;;;;;12.25;11.50;;;;;16.77;67.82;101155.78;5156929;27;46423;-69
2022/04/13 08:40:19;;;;;;;;;11.50;10.00;;;;;16.75;67.50;101155.78;5138299;27;45663;-70
2022/04/13 08:43:09;;;;;;;;;9.00;9.00;;;;;16.82;68.22;101166.63;5157491;27;45454;-69
2022/04/13 08:45:40;;;;;;;;;18.25;17.00;;;;;16.79;68.44;101172.88;5157592;27;45321;-70
2022/04/13 08:48:11;;;;;;;;;16.75;14.50;;;;;16.77;68.79;101169.28;5156680;27;46167;-70
2022/04/13 08:50:39;;;;;;;;;20.75;15.75;;;;;16.70;69.22;101184.53;5156708;27;45432;-69
2022/04/13 08:53:12;;;;;;;;;13.50;11.25;;;;;16.57;68.63;101179.91;5156995;27;45456;-70
2022/04/13 08:55:46;;;;;;;;;21.25;18.25;;;;;16.49;68.65;101149.28;5156921;27;45464;-68
2022/04/13 08:58:17;;;;;;;;;17.75;15.25;;;;;16.68;68.15;101196.19;5156954;27;45419;-70
2022/04/13 09:00:49;;;;;;;;;14.50;13.25;;;;;16.68;67.98;101199.81;5156495;27;45369;-69
2022/04/13 09:03:40;;;;;;;;;15.50;10.25;;;;;16.64;67.45;101203.34;5156744;27;45370;-69
2022/04/13 09:06:10;;;;;;;;;14.00;13.25;;;;;16.63;67.98;101208.72;5156793;27;45670;-69
2022/04/13 09:08:54;;;;;;;;;10.00;10.00;;;;;16.60;67.29;101206.91;5156108;27;45603;-70
2022/04/13 09:11:22;;;;;;;;;10.25;10.00;;;;;16.60;67.30;101212.31;5156151;27;45447;-70
2022/04/13 09:13:49;;;;;;;;;14.00;11.50;;;;;16.58;66.99;101214.06;5156741;27;45570;-70
2022/04/13 09:16:15;;;;;;;;;14.75;12.75;;;;;16.50;67.66;101207.69;5156917;27;45627;-69
2022/04/13 09:18:42;;;;;;;;;13.50;10.75;;;;;16.58;67.50;101223.09;5156439;27;45977;-70
2022/04/13 09:21:07;;;;;;;;;13.75;13.50;;;;;16.58;67.48;101219.47;5156241;27;45478;-69
2022/04/13 09:23:33;;;;;;;;;10.75;10.75;;;;;16.67;68.27;101232.16;5156257;27;45574;-70
2022/04/13 09:25:58;;;;;;;;;17.50;12.50;;;;;16.65;68.03;101232.16;5156527;27;45619;-68
2022/04/13 09:28:26;;;;;;;;;15.50;12.75;;;;;16.67;68.63;101230.34;5155986;27;45637;-69
2022/04/13 09:30:53;;;;;;;;;13.00;12.50;;;;;16.65;68.30;101240.22;5156388;27;45432;-69
2022/04/13 09:33:19;;;;;;;;;17.75;16.50;;;;;16.71;68.84;101242.06;5160515;27;45403;-70
2022/04/13 09:35:45;;;;;;;;;16.75;15.50;;;;;16.72;68.42;101239.38;5160381;27;45462;-70
2022/04/13 09:38:10;;;;;;;;;19.50;16.25;;;;;16.58;68.10;101211.38;5159556;27;46304;-70
2022/04/13 09:40:40;;;;;;;;;17.75;13.25;;;;;16.75;67.34;101247.50;5160022;27;45441;-70
2022/04/13 09:43:07;;;;;;;;;13.00;12.75;;;;;16.78;67.95;101246.66;5159785;27;45512;-69
2022/04/13 09:45:34;;;;;;;;;10.75;9.25;;;;;16.70;67.30;101235.78;5160198;27;45746;-70
2022/04/13 09:48:04;;;;;;;;;6.75;5.00;;;;;16.82;66.43;101237.69;5159678;27;45427;-70
2022/04/13 09:50:29;;;;;;;;;2.75;0.00;;;;;16.85;67.02;101237.75;5159668;27;45546;-69
2022/04/13 09:52:57;;;;;;;;;8.75;8.75;;;;;16.96;67.08;101245.94;5159698;27;45312;-70
2022/04/13 09:55:22;;;;;;;;;18.25;9.75;;;;;16.98;66.84;101245.94;5159847;27;45506;-69
2022/04/13 09:57:48;;;;;;;;;11.50;9.50;;;;;16.98;66.46;101241.44;5159495;27;45448;-69
2022/04/13 10:00:14;;;;;;;;;12.50;11.00;;;;;16.98;65.87;101244.16;5159416;27;45483;-70
2022/04/13 10:02:43;;;;;;;;;14.00;12.00;;;;;16.99;66.86;101242.34;5159772;27;45351;-69
2022/04/13 10:05:21;;;;;;;;;18.25;14.00;;;;;17.03;67.36;101242.38;5160526;27;45503;-69
2022/04/13 10:08:04;;;;;;;;;22.75;18.25;;;;;16.97;68.20;101269.31;5159341;27;45549;-69
2022/04/13 10:10:30;;;;;;;;;19.25;19.25;;;;;16.93;68.09;101237.81;5159127;27;45418;-68
2022/04/13 10:12:55;;;;;;;;;20.00;20.00;;;;;16.98;67.93;101244.16;5159418;27;45333;-69
2022/04/13 10:15:21;;;;;;;;;22.00;17.50;;;;;16.99;67.87;101248.63;5140653;27;45608;-69
2022/04/13 10:17:46;;;;;;;;;17.00;16.50;;;;;16.90;67.35;101224.28;5139734;27;48344;-71
2022/04/13 10:20:12;;;;;;;;;17.50;16.25;;;;;17.05;67.05;101248.69;5140174;27;45526;-69
2022/04/13 10:22:57;;;;;;;;;18.00;16.00;;;;;16.98;67.86;101243.22;5159359;27;45508;-69
2022/04/13 10:25:26;;;;;;;;;17.25;17.00;;;;;17.03;67.45;101246.91;5159284;27;45566;-69
2022/04/13 10:27:57;;;;;;;;;18.25;18.25;;;;;17.04;67.84;101246.91;5159566;27;47175;-70
2022/04/13 10:30:30;;;;;;;;;23.00;17.00;;;;;17.09;67.12;101245.16;5159020;27;45448;-70
2022/04/13 10:32:58;;;;;;;;;19.00;15.75;;;;;17.14;66.87;101253.25;5159153;27;45384;-69
2022/04/13 10:35:24;;;;;;;;;19.00;17.75;;;;;17.02;66.67;101226.19;5159016;27;45370;-70
2022/04/13 10:37:51;;;;;;;;;21.75;17.00;;;;;17.16;67.30;101251.50;5158830;27;46059;-69
2022/04/13 10:40:18;;;;;;;;;25.00;21.25;;;;;17.20;67.17;101258.72;5158873;27;45403;-69
2022/04/13 10:42:46;;;;;;;;;16.25;14.00;;;;;17.20;66.86;101242.50;5157965;27;45445;-69
2022/04/13 10:45:13;;;;;;;;;26.75;20.50;;;;;17.28;66.61;101265.06;5158799;27;45566;-70
2022/04/13 10:47:54;;;;;;;;;17.25;14.50;;;;;17.25;66.22;101262.34;5159179;27;47067;-69
2022/04/13 10:50:33;;;;;;;;;9.75;9.75;;;;;17.05;66.01;101247.81;5158623;27;45531;-69
2022/04/13 10:53:06;;;;;;;;;14.33;9.67;;;;;17.13;65.62;101264.97;5159045;27;45599;-69
2022/04/13 10:55:34;;;;;;;;;13.75;13.75;;;;;17.05;66.29;101237.00;5158653;27;45367;-69
2022/04/13 10:58:12;;;;;;;;;12.50;12.50;;;;;17.23;66.08;101255.13;5157429;27;45448;-69
2022/04/13 11:00:44;;;;;;;;;16.75;15.00;;;;;17.31;66.49;101259.69;5158102;27;45371;-70
2022/04/13 11:03:11;;;;;;;;;16.75;13.00;;;;;17.24;66.40;101254.22;5139090;27;45503;-68
2022/04/13 11:05:40;;;;;;;;;10.25;10.25;;;;;17.29;65.28;101255.16;5158649;27;45436;-70
2022/04/13 11:08:14;;;;;;;;;11.25;9.75;;;;;17.30;66.03;101249.75;5157864;27;45509;-68
2022/04/13 11:10:42;;;;;;;;;18.75;13.00;;;;;17.36;65.25;101251.63;5158249;27;45402;-70
2022/04/13 11:13:07;;;;;;;;;12.00;12.00;;;;;17.41;65.04;101251.66;5158502;27;45373;-68
2022/04/13 11:15:42;;;;;;;;;12.75;11.00;;;;;17.42;64.43;101248.03;5158847;27;45268;-68
2022/04/13 11:18:11;;;;;;;;;10.00;8.75;;;;;16.95;64.78;101177.53;5158133;27;45598;-69